METAR Data
IDs: Format: Raw Decoded Include TAF

Data at: 1407 UTC 21 Apr 2021

METAR for:KSPW (Spencer Muni, IA, US)
Text:KSPW 211353Z AUTO 28009KT 10SM CLR M03/M08 A3025 RMK AO2 SLP260 T10281083 $
Temperature: -2.8°C ( 27°F)
Dewpoint: -8.3°C ( 17°F) [RH = 66%]
Pressure (altimeter):30.25 inches Hg (1024.5 mb) [Sea level pressure: 1026.0 mb]
Winds:from the W (280 degrees) at 10 MPH (9 knots; 4.6 m/s)
Visibility:10 or more sm (16+ km)
Ceiling:at least 12,000 feet AGL
Clouds:sky clear below 12,000 feet AGL
QC Flag:automated observation with no human augmentation; SOME DATA ABOVE MAY BE INACCURATE!!!"$" is an indication the sensor requires maintenance.